首页
METAR-TAF:

METAR-TAF

机场 :

Bradford, 宾夕法尼亚州, 美国

纬度: 41-47-55N, 经度: 078-38-09W, 海拔: 653米

当前天气观测

该预报发布于53分钟前的09:53 UTC
风速3节,风向
温度 14°C
湿度 77%
气压 1013 hPa
能見度: 16.1公里
多云层高于3800英尺

METAR: KBFD 010953Z AUTO 18003KT 10SM BKN038 14/10 A2991 RMK AO2 SLP118 T01390100

时间: 06:46 (10:46 UTC)

预报

该预报发布于1小时和25分钟前的09:21 UTC
预报有效从01日的 09点(UTC)到 02日的 06点(UTC)
风速5节,风向西南
能見度: 10公里
散云层高于4000英尺
多云层高于10000英尺
从 01日的 1400点(UTC)
风速6节,风向西转西南
能見度: 10公里
多云层高于4000英尺
小阵雨
从 01日的 1700点(UTC)
风速7节,风向西
能見度: 10公里
多云层高于5000英尺, 积雨云.
小阵雨, 附近有雷暴
从 02日的 0400点(UTC)
风速2节,风向西北
能見度: 8.0公里
阴天层高于1500英尺
轻雾

TAF: KBFD 010921Z 0109/0206 22005KT P6SM SCT040 BKN100 FM011400 25006KT P6SM -SHRA BKN040 FM011700 28007KT P6SM -SHRA VCTS BKN050CB FM020400 32002KT 5SM BR OVC015

超过4000个机场的气象观测和天气预报(METAR&TAF报告)。

可查询的气象台以黄色和红色小点在地图上表示。

将鼠标移到小点上方,可查看气象台名称。

然后点击查看天气观测和预报。

如需切换地图:点击带黑十字的绿色按钮放大地图;点击带横线的绿色按钮缩小地图;或者点击绿色箭头查看邻近地区的地图。


METAR-TAF: